Time;durP1;ratioP1;P1;durP2;ratioP2;P2;SDS_P1;SDS_P2;PMS_P1;PMS_P2;Temp;Humidity;BMP_temperature;BMP_pressure;BME280_temperature;BME280_humidity;BME280_pressure;Samples;Min_cycle;Max_cycle;Signal;HPM_P1;HPM_P2
2023/08/03 00:00:46;;;;;;;0.47;0.47;;;25.30;74.50;;;;;;6243159;23;20170;-83
2023/08/03 00:03:16;;;;;;;0.50;0.50;;;25.30;74.60;;;;;;6240651;23;20171;-83
2023/08/03 00:05:46;;;;;;;0.40;0.40;;;25.30;74.70;;;;;;6242962;23;20186;-81
2023/08/03 00:08:15;;;;;;;0.55;0.45;;;25.30;74.70;;;;;;6241656;23;20852;-81
2023/08/03 00:10:43;;;;;;;0.22;0.22;;;25.20;74.70;;;;;;6241957;23;20251;-81
2023/08/03 00:13:12;;;;;;;0.47;0.47;;;25.30;74.90;;;;;;6191411;23;20173;-82
2023/08/03 00:15:40;;;;;;;0.20;0.20;;;25.20;75.20;;;;;;6242789;23;20170;-82
2023/08/03 00:18:09;;;;;;;0.47;0.47;;;25.20;75.20;;;;;;6213988;23;20170;-82
2023/08/03 00:20:39;;;;;;;0.40;0.40;;;25.20;75.20;;;;;;6242698;23;20175;-82
2023/08/03 00:23:08;;;;;;;0.43;0.43;;;25.20;75.30;;;;;;6241608;23;20171;-83
2023/08/03 00:25:36;;;;;;;0.43;0.35;;;25.20;75.40;;;;;;6216625;23;20201;-81
2023/08/03 00:28:05;;;;;;;0.40;0.40;;;25.10;75.40;;;;;;6241393;23;20250;-82
2023/08/03 00:30:34;;;;;;;0.38;0.30;;;25.10;75.40;;;;;;6243006;23;20166;-82
2023/08/03 00:33:03;;;;;;;0.30;0.30;;;25.10;75.40;;;;;;6214705;23;20236;-80
2023/08/03 00:35:31;;;;;;;0.30;0.30;;;25.10;75.40;;;;;;6243094;23;20170;-83
2023/08/03 00:38:01;;;;;;;0.30;0.30;;;25.10;75.50;;;;;;6214216;23;20198;-82
2023/08/03 00:40:30;;;;;;;0.40;0.40;;;25.10;75.50;;;;;;6243282;23;20254;-81
2023/08/03 00:42:59;;;;;;;0.40;0.40;;;25.10;75.70;;;;;;6213867;23;20638;-80
2023/08/03 00:45:27;;;;;;;4.30;0.55;;;25.00;75.80;;;;;;6242480;23;20574;-81
2023/08/03 00:47:56;;;;;;;0.30;0.30;;;25.00;75.80;;;;;;6241981;23;20170;-82
2023/08/03 00:50:27;;;;;;;1.85;0.63;;;25.00;75.90;;;;;;6240682;23;20508;-80
2023/08/03 00:52:55;;;;;;;0.63;0.63;;;25.00;76.10;;;;;;6240180;23;20640;-82
2023/08/03 00:55:25;;;;;;;0.75;0.50;;;25.00;76.30;;;;;;6242906;23;20479;-82
2023/08/03 00:57:54;;;;;;;0.20;0.20;;;24.90;76.40;;;;;;6242945;23;20166;-83
2023/08/03 01:00:23;;;;;;;0.30;0.30;;;24.90;76.40;;;;;;6240919;23;20171;-82
2023/08/03 01:02:52;;;;;;;1.83;0.68;;;24.80;76.30;;;;;;6242148;23;20525;-82
2023/08/03 01:05:20;;;;;;;0.98;0.60;;;24.80;76.40;;;;;;6215706;23;20621;-82
2023/08/03 01:07:49;;;;;;;0.30;0.30;;;24.80;76.60;;;;;;6242582;23;20199;-82
2023/08/03 01:10:18;;;;;;;1.13;0.57;;;24.80;76.70;;;;;;6239405;23;20598;-83
2023/08/03 01:12:48;;;;;;;0.43;0.35;;;24.80;76.70;;;;;;6241125;22;20190;-82
2023/08/03 01:15:16;;;;;;;0.90;0.90;;;24.80;76.90;;;;;;6241526;23;20611;-83
2023/08/03 01:17:45;;;;;;;0.47;0.43;;;24.80;77.30;;;;;;6240819;23;20170;-82
2023/08/03 01:20:15;;;;;;;0.82;0.73;;;24.70;77.30;;;;;;6242187;23;20233;-83
2023/08/03 01:22:45;;;;;;;0.77;0.50;;;24.70;77.30;;;;;;6239410;23;20220;-81
2023/08/03 01:25:14;;;;;;;0.47;0.47;;;24.70;77.30;;;;;;6241257;22;20190;-83
2023/08/03 01:27:47;;;;;;;1.02;0.75;;;24.60;77.40;;;;;;6240985;23;20620;-81
2023/08/03 01:30:15;;;;;;;0.85;0.47;;;24.60;77.40;;;;;;6241328;23;20162;-83
2023/08/03 01:32:44;;;;;;;0.30;0.30;;;24.60;77.40;;;;;;6242012;23;20166;-82
2023/08/03 01:35:12;;;;;;;0.77;0.55;;;24.60;77.50;;;;;;6241211;23;20997;-83
2023/08/03 01:37:41;;;;;;;1.33;1.00;;;24.60;77.50;;;;;;6242354;23;20200;-81
2023/08/03 01:40:12;;;;;;;0.60;0.60;;;24.60;77.90;;;;;;6240439;23;20199;-83
2023/08/03 01:42:41;;;;;;;1.42;1.15;;;24.50;78.00;;;;;;6241340;23;20163;-81
2023/08/03 01:45:10;;;;;;;0.32;0.32;;;24.50;78.00;;;;;;6241318;23;20205;-83
2023/08/03 01:47:38;;;;;;;0.60;0.60;;;24.50;78.00;;;;;;6242756;23;20257;-82
2023/08/03 01:50:07;;;;;;;0.40;0.40;;;24.50;78.00;;;;;;6215312;23;20174;-82
2023/08/03 01:52:36;;;;;;;0.25;0.25;;;24.50;78.00;;;;;;6240883;23;20170;-83
2023/08/03 01:55:05;;;;;;;0.50;0.50;;;24.40;77.90;;;;;;6239822;23;20167;-82
2023/08/03 01:57:35;;;;;;;0.40;0.40;;;24.40;78.00;;;;;;6241342;23;20170;-82
2023/08/03 02:00:05;;;;;;;0.20;0.20;;;24.40;78.10;;;;;;6240269;23;20237;-82
2023/08/03 02:02:33;;;;;;;0.77;0.57;;;24.40;78.20;;;;;;6241596;23;20181;-82
2023/08/03 02:05:02;;;;;;;0.28;0.28;;;24.40;78.20;;;;;;6241802;23;20206;-82
2023/08/03 02:07:45;;;;;;;0.30;0.30;;;24.30;78.10;;;;;;6214230;23;20174;-83
2023/08/03 02:10:15;;;;;;;0.40;0.40;;;24.40;78.20;;;;;;6214798;23;20155;-83
2023/08/03 02:12:45;;;;;;;0.73;0.73;;;24.30;78.20;;;;;;6214078;23;20616;-81
2023/08/03 02:15:14;;;;;;;0.40;0.40;;;24.30;78.20;;;;;;6239349;22;20674;-82
2023/08/03 02:17:43;;;;;;;0.20;0.20;;;24.30;78.40;;;;;;6239847;23;20177;-81
2023/08/03 02:20:13;;;;;;;0.57;0.57;;;24.30;78.60;;;;;;6214576;23;20170;-81
2023/08/03 02:22:43;;;;;;;0.55;0.45;;;24.30;78.80;;;;;;6240638;23;20201;-81
2023/08/03 02:25:12;;;;;;;1.70;0.65;;;24.30;78.80;;;;;;6241704;23;20171;-83
2023/08/03 02:27:41;;;;;;;1.27;0.98;;;24.20;78.80;;;;;;6239698;23;20257;-83
2023/08/03 02:30:12;;;;;;;1.05;0.73;;;24.20;79.40;;;;;;6214922;23;20209;-83
2023/08/03 02:32:41;;;;;;;0.63;0.50;;;24.20;79.70;;;;;;6242222;23;20209;-80
2023/08/03 02:35:10;;;;;;;1.45;1.23;;;24.20;79.80;;;;;;6242082;23;20166;-83
2023/08/03 02:37:38;;;;;;;0.52;0.52;;;24.10;80.00;;;;;;6239734;23;20167;-82
2023/08/03 02:40:08;;;;;;;2.60;0.90;;;24.10;80.00;;;;;;6240454;23;20170;-83
2023/08/03 02:42:37;;;;;;;5.43;0.95;;;24.10;80.00;;;;;;6241155;22;20504;-82
2023/08/03 02:45:07;;;;;;;0.80;0.80;;;24.10;80.20;;;;;;6241029;23;20538;-81
2023/08/03 02:47:37;;;;;;;0.30;0.30;;;24.10;80.60;;;;;;6241202;23;20202;-82
2023/08/03 02:50:06;;;;;;;0.45;0.43;;;24.00;80.60;;;;;;6238937;23;20194;-82
2023/08/03 02:52:35;;;;;;;1.25;0.80;;;24.00;80.80;;;;;;6241091;23;20190;-83
2023/08/03 02:55:04;;;;;;;4.03;2.10;;;24.00;80.90;;;;;;6213790;23;20181;-81
2023/08/03 02:57:32;;;;;;;0.30;0.30;;;23.90;81.00;;;;;;6241113;23;20174;-82
2023/08/03 03:00:01;;;;;;;0.40;0.40;;;24.00;81.00;;;;;;6239591;23;20170;-82
2023/08/03 03:02:30;;;;;;;4.00;0.57;;;23.90;81.50;;;;;;6214344;23;20228;-81
2023/08/03 03:05:00;;;;;;;1.17;1.08;;;23.90;81.50;;;;;;6240225;23;20224;-82
2023/08/03 03:07:31;;;;;;;0.43;0.43;;;23.90;82.10;;;;;;6241833;23;20989;-81
2023/08/03 03:09:59;;;;;;;1.38;1.15;;;23.90;82.60;;;;;;6239784;23;20163;-81
2023/08/03 03:12:28;;;;;;;0.40;0.40;;;23.90;82.50;;;;;;6240811;23;20174;-82
2023/08/03 03:14:57;;;;;;;0.82;0.70;;;23.80;82.80;;;;;;6240815;23;20191;-82
2023/08/03 03:17:26;;;;;;;0.75;0.52;;;23.80;82.80;;;;;;6215268;23;20170;-81
2023/08/03 03:19:54;;;;;;;3.03;1.67;;;23.80;82.90;;;;;;6241451;23;20249;-83
2023/08/03 03:22:24;;;;;;;0.90;0.90;;;23.80;82.80;;;;;;6240903;23;20538;-82
2023/08/03 03:24:53;;;;;;;0.30;0.30;;;23.80;83.40;;;;;;6214857;23;20224;-81
2023/08/03 03:27:21;;;;;;;0.82;0.65;;;23.70;83.40;;;;;;6242960;23;20197;-83
2023/08/03 03:29:50;;;;;;;1.48;1.15;;;23.70;83.60;;;;;;6244219;23;20166;-81
2023/08/03 03:32:18;;;;;;;1.00;0.85;;;23.70;83.80;;;;;;6243684;23;20698;-81
2023/08/03 03:34:47;;;;;;;0.73;0.73;;;23.70;83.70;;;;;;6217827;23;20513;-81
2023/08/03 03:37:16;;;;;;;0.60;0.60;;;23.70;83.80;;;;;;6244436;23;20170;-82
2023/08/03 03:39:46;;;;;;;1.13;0.63;;;23.70;83.60;;;;;;6243277;23;20174;-82
2023/08/03 03:42:15;;;;;;;0.70;0.70;;;23.70;83.60;;;;;;6240959;23;20166;-82
2023/08/03 03:44:43;;;;;;;0.65;0.57;;;23.70;83.60;;;;;;6242083;23;20583;-82
2023/08/03 03:47:12;;;;;;;2.17;1.15;;;23.70;83.50;;;;;;6215742;23;20198;-82
2023/08/03 03:49:40;;;;;;;1.45;1.00;;;23.70;83.40;;;;;;6243451;23;20690;-81
2023/08/03 03:52:09;;;;;;;0.57;0.43;;;23.70;83.30;;;;;;6239003;23;20258;-81
2023/08/03 03:54:38;;;;;;;0.85;0.77;;;23.80;83.60;;;;;;6239129;23;20166;-83
2023/08/03 03:57:09;;;;;;;0.50;0.50;;;23.80;84.00;;;;;;6237925;23;20196;-84
2023/08/03 03:59:38;;;;;;;0.63;0.40;;;23.80;84.00;;;;;;6240539;23;20209;-82
2023/08/03 04:02:07;;;;;;;1.50;0.60;;;23.80;84.00;;;;;;6210996;23;20167;-82
2023/08/03 04:04:35;;;;;;;1.20;0.88;;;23.80;84.00;;;;;;6213715;23;20242;-82
2023/08/03 04:07:04;;;;;;;0.47;0.47;;;23.90;83.90;;;;;;6242597;23;20202;-82
2023/08/03 04:09:33;;;;;;;0.35;0.35;;;23.90;83.90;;;;;;6240787;23;20498;-82
2023/08/03 04:12:02;;;;;;;0.50;0.50;;;23.90;84.00;;;;;;6240096;23;20170;-81
2023/08/03 04:14:32;;;;;;;0.73;0.60;;;23.90;84.20;;;;;;6215589;23;20213;-84
2023/08/03 04:17:00;;;;;;;1.00;0.60;;;24.00;84.30;;;;;;6240960;23;20509;-81
2023/08/03 04:19:29;;;;;;;0.50;0.50;;;24.00;84.30;;;;;;6242521;23;20177;-82
2023/08/03 04:21:58;;;;;;;0.75;0.73;;;24.00;84.40;;;;;;6238918;23;20170;-82
2023/08/03 04:24:30;;;;;;;0.30;0.30;;;24.00;84.20;;;;;;6239245;23;20170;-81
2023/08/03 04:26:59;;;;;;;0.98;0.88;;;24.10;84.10;;;;;;6240992;23;20229;-83
2023/08/03 04:29:27;;;;;;;1.00;0.90;;;24.10;84.00;;;;;;6214872;23;20167;-82
2023/08/03 04:31:57;;;;;;;0.40;0.40;;;24.10;84.10;;;;;;6215661;23;20170;-82
2023/08/03 04:34:26;;;;;;;1.67;1.00;;;24.20;84.10;;;;;;6241195;23;20382;-81
2023/08/03 04:36:54;;;;;;;0.75;0.68;;;24.20;84.10;;;;;;6238874;23;20205;-81
2023/08/03 04:39:23;;;;;;;4.05;1.45;;;24.20;84.10;;;;;;6240886;23;20198;-81
2023/08/03 04:41:52;;;;;;;0.40;0.40;;;24.20;84.10;;;;;;6240506;23;20177;-82
2023/08/03 04:44:20;;;;;;;0.60;0.60;;;24.30;84.00;;;;;;6240817;23;20194;-81
2023/08/03 04:46:49;;;;;;;0.55;0.55;;;24.30;83.90;;;;;;6241059;23;20183;-82
2023/08/03 04:49:19;;;;;;;2.33;1.13;;;24.40;84.00;;;;;;6239694;23;20495;-82
2023/08/03 04:51:47;;;;;;;1.85;0.85;;;24.40;84.00;;;;;;6241326;23;20197;-82
2023/08/03 04:54:16;;;;;;;0.63;0.52;;;24.40;84.60;;;;;;6239801;23;20593;-82
2023/08/03 04:56:44;;;;;;;4.82;1.42;;;24.50;84.60;;;;;;6241231;23;20627;-81
2023/08/03 04:59:13;;;;;;;0.60;0.60;;;24.50;83.90;;;;;;6241319;22;20631;-81
2023/08/03 05:01:42;;;;;;;0.77;0.60;;;24.60;83.80;;;;;;6239286;23;20176;-80
2023/08/03 05:04:11;;;;;;;1.10;1.00;;;24.60;83.70;;;;;;6240475;23;20170;-79
2023/08/03 05:06:41;;;;;;;3.58;1.27;;;24.70;83.70;;;;;;6242686;23;20207;-80
2023/08/03 05:09:09;;;;;;;0.47;0.47;;;24.80;83.80;;;;;;6242862;23;20618;-81
2023/08/03 05:11:37;;;;;;;2.60;1.13;;;24.80;83.80;;;;;;6242782;23;20413;-82
2023/08/03 05:14:06;;;;;;;0.57;0.45;;;24.80;83.80;;;;;;6241276;23;20170;-80
2023/08/03 05:16:34;;;;;;;0.75;0.55;;;24.90;83.60;;;;;;6212845;23;20166;-80
2023/08/03 05:19:03;;;;;;;2.47;1.27;;;25.00;83.70;;;;;;6240655;23;20224;-83
2023/08/03 05:21:32;;;;;;;0.80;0.80;;;25.00;83.50;;;;;;6242162;23;20639;-82
2023/08/03 05:24:02;;;;;;;0.80;0.70;;;25.00;83.30;;;;;;6240646;23;20159;-82
2023/08/03 05:26:33;;;;;;;0.30;0.30;;;25.20;83.30;;;;;;6240580;23;20167;-82
2023/08/03 05:29:03;;;;;;;1.48;0.65;;;25.20;84.00;;;;;;6240551;23;20216;-82
2023/08/03 05:31:32;;;;;;;1.50;1.08;;;25.20;83.00;;;;;;6240555;22;20216;-81
2023/08/03 05:34:00;;;;;;;0.77;0.52;;;25.30;83.00;;;;;;6239873;22;20247;-84
2023/08/03 05:36:29;;;;;;;1.42;1.17;;;25.40;82.90;;;;;;6242248;23;20181;-83
2023/08/03 05:38:58;;;;;;;0.52;0.52;;;25.40;82.70;;;;;;6242241;23;20166;-83
2023/08/03 05:41:29;;;;;;;1.02;0.93;;;25.50;82.60;;;;;;6242428;23;20224;-83
2023/08/03 05:43:58;;;;;;;1.08;1.00;;;25.60;82.50;;;;;;6241312;22;20162;-83
2023/08/03 05:46:32;;;;;;;1.27;0.57;;;25.60;82.40;;;;;;6238924;23;20170;-82
2023/08/03 05:49:00;;;;;;;0.43;0.43;;;25.70;82.40;;;;;;6238478;23;20189;-81
2023/08/03 05:51:29;;;;;;;0.85;0.60;;;25.80;82.30;;;;;;6240724;23;20228;-82
2023/08/03 05:53:58;;;;;;;1.65;1.38;;;25.80;82.20;;;;;;6237531;23;20178;-82
2023/08/03 05:56:28;;;;;;;0.57;0.57;;;25.80;81.90;;;;;;6242424;23;20612;-81
2023/08/03 05:58:58;;;;;;;0.45;0.45;;;26.00;82.00;;;;;;6214273;23;20612;-82
2023/08/03 06:01:26;;;;;;;0.82;0.75;;;26.00;81.90;;;;;;6240731;23;20249;-82
2023/08/03 06:03:55;;;;;;;1.20;0.95;;;26.10;81.90;;;;;;6213015;23;20174;-82
2023/08/03 06:06:24;;;;;;;0.52;0.52;;;26.10;81.70;;;;;;6239251;23;20201;-83
2023/08/03 06:08:57;;;;;;;2.22;1.00;;;26.20;81.60;;;;;;6233599;23;20205;-82
2023/08/03 06:11:28;;;;;;;0.88;0.50;;;26.30;81.50;;;;;;6242265;23;20163;-84
2023/08/03 06:13:57;;;;;;;0.77;0.50;;;26.40;81.30;;;;;;6242275;23;20163;-84
2023/08/03 06:16:25;;;;;;;1.55;0.95;;;26.40;81.10;;;;;;6191273;23;20194;-84
2023/08/03 06:18:56;;;;;;;0.70;0.60;;;26.50;81.10;;;;;;6240402;23;20212;-83
2023/08/03 06:21:25;;;;;;;0.35;0.20;;;26.60;81.10;;;;;;6239706;23;20619;-85
2023/08/03 06:23:57;;;;;;;0.70;0.50;;;26.60;80.80;;;;;;6240405;23;20221;-82
2023/08/03 06:26:31;;;;;;;0.90;0.90;;;26.70;80.50;;;;;;6239748;23;20652;-81
2023/08/03 06:29:01;;;;;;;0.95;0.85;;;26.80;80.30;;;;;;6240701;23;20244;-82
2023/08/03 06:31:35;;;;;;;0.40;0.40;;;26.80;80.20;;;;;;6239326;23;20892;-82
2023/08/03 06:34:04;;;;;;;0.73;0.68;;;27.00;80.20;;;;;;6240096;22;20181;-82
2023/08/03 06:36:36;;;;;;;1.33;0.60;;;27.10;79.90;;;;;;6214485;23;20173;-82
2023/08/03 06:39:05;;;;;;;0.30;0.30;;;27.10;79.60;;;;;;6237526;23;20217;-81
2023/08/03 06:41:35;;;;;;;0.68;0.65;;;27.20;79.50;;;;;;6241532;23;20167;-81
2023/08/03 06:44:04;;;;;;;0.50;0.50;;;27.20;79.30;;;;;;6213686;23;20150;-81
2023/08/03 06:46:32;;;;;;;0.30;0.30;;;27.30;79.20;;;;;;6216153;23;20166;-82
2023/08/03 06:49:01;;;;;;;0.40;0.40;;;27.40;78.80;;;;;;6238963;23;20530;-81
2023/08/03 06:51:32;;;;;;;2.10;0.63;;;27.50;78.60;;;;;;6240689;23;20178;-82
2023/08/03 06:54:02;;;;;;;1.60;1.02;;;27.50;78.30;;;;;;6242715;23;20182;-85
2023/08/03 06:56:31;;;;;;;5.70;1.00;;;27.60;77.50;;;;;;6239660;23;20616;-82
2023/08/03 06:59:01;;;;;;;1.00;0.60;;;27.70;77.60;;;;;;6213703;23;20178;-79
2023/08/03 07:01:30;;;;;;;0.38;0.38;;;27.70;77.50;;;;;;6240720;23;20162;-83
2023/08/03 07:03:58;;;;;;;2.00;0.80;;;27.80;77.50;;;;;;6238748;23;20217;-81
2023/08/03 07:06:27;;;;;;;0.40;0.40;;;27.80;77.20;;;;;;6240579;23;20170;-81
2023/08/03 07:08:55;;;;;;;1.55;0.70;;;27.90;77.10;;;;;;6237322;23;20694;-80
2023/08/03 07:11:24;;;;;;;0.47;0.45;;;27.90;76.90;;;;;;6210515;23;20170;-81
2023/08/03 07:13:53;;;;;;;0.60;0.40;;;28.10;76.60;;;;;;6240667;23;20165;-80
2023/08/03 07:16:23;;;;;;;0.50;0.40;;;28.10;76.30;;;;;;6242146;22;20167;-81
2023/08/03 07:18:52;;;;;;;1.20;0.77;;;28.20;76.30;;;;;;6237907;23;20498;-80
2023/08/03 07:21:24;;;;;;;1.20;0.60;;;28.20;75.30;;;;;;6240672;23;20480;-81
2023/08/03 07:23:52;;;;;;;0.60;0.60;;;28.30;75.50;;;;;;6241621;23;20173;-81
2023/08/03 07:26:21;;;;;;;0.93;0.80;;;28.40;75.10;;;;;;6239466;23;20232;-81
2023/08/03 07:28:50;;;;;;;0.55;0.40;;;28.40;74.80;;;;;;6241371;23;20202;-81
2023/08/03 07:31:19;;;;;;;0.60;0.60;;;28.50;74.70;;;;;;6242005;23;20170;-80
2023/08/03 07:33:49;;;;;;;2.15;1.23;;;28.50;74.90;;;;;;6214003;23;20166;-82
2023/08/03 07:36:18;;;;;;;1.83;0.60;;;28.60;74.70;;;;;;6242624;23;20173;-81
2023/08/03 07:38:47;;;;;;;0.60;0.60;;;28.60;74.50;;;;;;6215173;23;20170;-83
2023/08/03 07:41:15;;;;;;;7.68;0.70;;;28.70;74.40;;;;;;6240073;23;20171;-82
2023/08/03 07:43:44;;;;;;;0.40;0.40;;;28.70;73.90;;;;;;6241776;23;20178;-82
2023/08/03 07:46:13;;;;;;;0.68;0.52;;;28.80;73.70;;;;;;6242211;23;20194;-82
2023/08/03 07:48:42;;;;;;;0.77;0.60;;;28.80;73.30;;;;;;6243151;23;20206;-86
2023/08/03 07:51:16;;;;;;;1.35;0.70;;;28.90;73.40;;;;;;6241748;23;20167;-82
2023/08/03 07:53:48;;;;;;;0.60;0.60;;;28.90;73.50;;;;;;6243082;23;20220;-82
2023/08/03 07:56:17;;;;;;;2.13;1.15;;;29.00;73.10;;;;;;6242581;23;20175;-81
2023/08/03 07:58:46;;;;;;;0.47;0.47;;;29.10;72.90;;;;;;6241100;23;20171;-84
2023/08/03 08:01:15;;;;;;;0.80;0.63;;;29.10;72.50;;;;;;6215499;23;20198;-83
2023/08/03 08:03:44;;;;;;;0.68;0.50;;;29.20;72.20;;;;;;6242113;23;20174;-84
2023/08/03 08:06:17;;;;;;;1.65;0.80;;;29.20;72.30;;;;;;6242173;23;20190;-84
2023/08/03 08:08:46;;;;;;;0.77;0.75;;;29.20;72.20;;;;;;6239849;23;20186;-82
2023/08/03 08:11:17;;;;;;;1.45;0.90;;;29.30;71.90;;;;;;6238022;22;20242;-80
2023/08/03 08:13:46;;;;;;;0.40;0.40;;;29.40;71.40;;;;;;6216659;23;20166;-82
2023/08/03 08:16:16;;;;;;;0.93;0.93;;;29.40;70.60;;;;;;6243225;23;20224;-81
2023/08/03 08:18:47;;;;;;;1.27;1.00;;;29.50;70.00;;;;;;6241213;23;20170;-82
2023/08/03 08:21:17;;;;;;;2.53;0.82;;;29.50;69.10;;;;;;6243300;23;20602;-83
2023/08/03 08:23:46;;;;;;;1.15;0.57;;;29.50;68.80;;;;;;6243687;23;20166;-81
2023/08/03 08:26:16;;;;;;;1.75;1.38;;;29.50;69.30;;;;;;6241875;23;20257;-83
2023/08/03 08:28:47;;;;;;;0.57;0.57;;;29.50;69.40;;;;;;6241178;23;20193;-83
2023/08/03 08:31:32;;;;;;;2.20;0.85;;;29.60;69.40;;;;;;6242083;23;20624;-81
2023/08/03 08:34:04;;;;;;;3.63;1.17;;;29.60;69.50;;;;;;6252618;23;20163;-81
2023/08/03 08:36:34;;;;;;;4.82;0.98;;;29.70;69.60;;;;;;6243564;23;20628;-82
2023/08/03 08:39:03;;;;;;;0.40;0.40;;;29.70;69.80;;;;;;6243711;23;20249;-84
2023/08/03 08:41:31;;;;;;;0.40;0.30;;;29.80;70.00;;;;;;6244727;23;20258;-85
2023/08/03 08:44:00;;;;;;;1.88;0.57;;;29.80;69.70;;;;;;6241362;23;20174;-88
2023/08/03 08:46:31;;;;;;;1.05;0.60;;;29.90;69.10;;;;;;6244498;22;20193;-88
2023/08/03 08:49:03;;;;;;;0.40;0.40;;;29.90;68.60;;;;;;6245650;23;20273;-89
2023/08/03 08:51:40;;;;;;;0.73;0.68;;;30.00;68.40;;;;;;6220003;23;20155;-87
2023/08/03 08:54:15;;;;;;;0.63;0.63;;;30.00;68.50;;;;;;6244759;22;20162;-87
2023/08/03 08:56:46;;;;;;;2.83;0.88;;;30.10;68.60;;;;;;6244037;22;20677;-85
2023/08/03 08:59:17;;;;;;;0.60;0.60;;;30.20;68.50;;;;;;6245386;22;20500;-87
2023/08/03 09:01:50;;;;;;;1.95;0.60;;;30.30;68.60;;;;;;6245612;23;20163;-88
2023/08/03 18:19:27;;;;;;;1.17;1.08;;;32.60;56.20;;;;;;6240513;23;20194;-82
2023/08/03 18:21:56;;;;;;;0.98;0.60;;;32.50;56.30;;;;;;6242880;23;20224;-86
2023/08/03 18:24:25;;;;;;;0.32;0.32;;;32.50;56.50;;;;;;6242755;23;20623;-87
2023/08/03 18:26:55;;;;;;;1.42;0.60;;;32.40;56.50;;;;;;6239294;23;20174;-85
2023/08/03 18:29:24;;;;;;;1.67;0.73;;;32.30;56.60;;;;;;6237982;23;20177;-83
2023/08/03 18:31:53;;;;;;;1.77;0.50;;;32.30;56.80;;;;;;6239454;23;20170;-84
2023/08/03 18:34:22;;;;;;;0.47;0.47;;;32.20;57.10;;;;;;6240294;23;20186;-84
2023/08/03 18:36:51;;;;;;;0.80;0.68;;;32.10;57.30;;;;;;6241147;23;20174;-84
2023/08/03 18:39:20;;;;;;;2.17;1.08;;;32.10;57.50;;;;;;6242233;23;20167;-83
2023/08/03 18:41:49;;;;;;;2.03;1.10;;;32.00;57.60;;;;;;6241271;23;20170;-83
2023/08/03 18:44:18;;;;;;;0.95;0.50;;;31.90;57.70;;;;;;6240403;23;20397;-84
2023/08/03 18:46:46;;;;;;;0.30;0.30;;;31.90;57.80;;;;;;6242159;23;20314;-85
2023/08/03 18:49:15;;;;;;;0.43;0.43;;;31.90;57.80;;;;;;6241963;23;20170;-85
2023/08/03 18:51:46;;;;;;;2.47;0.95;;;31.80;57.90;;;;;;6242630;23;20627;-86
2023/08/03 18:54:18;;;;;;;0.73;0.43;;;31.80;58.00;;;;;;6241955;23;20172;-85
2023/08/03 18:56:57;;;;;;;0.38;0.30;;;31.70;58.00;;;;;;6241897;23;20166;-87
2023/08/03 18:59:26;;;;;;;0.20;0.20;;;31.70;58.10;;;;;;6241938;23;20182;-84
2023/08/03 19:01:54;;;;;;;0.57;0.50;;;31.60;58.10;;;;;;6237617;23;20236;-83
2023/08/03 19:04:33;;;;;;;0.82;0.30;;;31.60;58.30;;;;;;6240491;23;20170;-84
2023/08/03 19:07:03;;;;;;;1.10;0.88;;;31.50;58.40;;;;;;6239603;23;20241;-86
2023/08/03 19:09:42;;;;;;;1.10;0.75;;;31.50;58.50;;;;;;6239232;23;20265;-85
2023/08/03 19:12:15;;;;;;;0.52;0.40;;;31.50;58.60;;;;;;6238263;23;20190;-84
2023/08/03 19:14:47;;;;;;;0.30;0.30;;;31.40;58.70;;;;;;6237892;23;20181;-85
2023/08/03 19:17:17;;;;;;;1.00;0.50;;;31.40;58.80;;;;;;6239711;23;20250;-85
2023/08/03 19:19:48;;;;;;;0.35;0.35;;;31.30;58.90;;;;;;6210419;23;20222;-85
2023/08/03 19:22:22;;;;;;;0.30;0.30;;;31.30;59.00;;;;;;6211557;23;20694;-84
2023/08/03 19:24:54;;;;;;;2.20;0.75;;;31.30;59.10;;;;;;6209069;23;20221;-85
2023/08/03 19:27:25;;;;;;;0.28;0.28;;;31.20;59.20;;;;;;6209807;23;20237;-83
2023/08/03 19:29:54;;;;;;;1.17;0.70;;;31.20;59.50;;;;;;6209618;23;20192;-84
2023/08/03 19:32:23;;;;;;;1.83;1.10;;;31.10;59.70;;;;;;6211061;23;20537;-84
2023/08/03 19:34:56;;;;;;;1.95;1.00;;;31.00;59.90;;;;;;6211412;23;20589;-84
2023/08/03 19:37:24;;;;;;;1.20;1.00;;;31.00;60.20;;;;;;6211190;23;20621;-86
2023/08/03 19:39:55;;;;;;;0.60;0.40;;;31.00;60.50;;;;;;6208574;23;20167;-85
2023/08/03 19:42:23;;;;;;;0.90;0.82;;;30.90;61.10;;;;;;6208504;23;20250;-85
2023/08/03 19:44:51;;;;;;;0.50;0.50;;;30.90;61.10;;;;;;6208324;23;20164;-85
2023/08/03 19:47:24;;;;;;;0.40;0.35;;;30.80;61.10;;;;;;6210323;23;20640;-84
2023/08/03 19:49:52;;;;;;;0.43;0.43;;;30.80;61.30;;;;;;6209106;23;20158;-83
2023/08/03 19:52:24;;;;;;;0.80;0.80;;;30.80;61.90;;;;;;6207238;23;20160;-84
2023/08/03 19:54:55;;;;;;;1.30;0.70;;;30.80;62.20;;;;;;6210768;23;20197;-84
2023/08/03 19:57:27;;;;;;;0.65;0.65;;;30.70;62.20;;;;;;6211560;23;20170;-85
2023/08/03 19:59:58;;;;;;;0.65;0.40;;;30.70;62.40;;;;;;6208835;23;20160;-85
2023/08/03 20:02:29;;;;;;;0.32;0.32;;;30.60;62.30;;;;;;6210706;23;20171;-84
2023/08/03 20:05:01;;;;;;;0.80;0.65;;;30.60;62.50;;;;;;6209985;23;20164;-87
2023/08/03 20:07:32;;;;;;;0.95;0.80;;;30.60;62.70;;;;;;6211805;23;20163;-85
2023/08/03 20:10:06;;;;;;;1.67;0.68;;;30.50;63.20;;;;;;6211668;23;20159;-83
2023/08/03 20:12:34;;;;;;;0.40;0.40;;;30.60;63.80;;;;;;6209026;23;20811;-85
2023/08/03 20:15:05;;;;;;;1.10;1.00;;;30.50;63.60;;;;;;6211376;23;20163;-83
2023/08/03 20:17:37;;;;;;;0.45;0.45;;;30.50;63.80;;;;;;6216509;23;20187;-83
2023/08/03 20:20:06;;;;;;;0.68;0.65;;;30.50;63.80;;;;;;6240905;23;20670;-84
2023/08/03 20:22:35;;;;;;;0.57;0.57;;;30.40;63.80;;;;;;6243032;23;20209;-85
2023/08/03 20:25:05;;;;;;;1.20;0.50;;;30.40;63.90;;;;;;6241905;23;20171;-84
2023/08/03 20:27:34;;;;;;;1.95;0.47;;;30.40;63.70;;;;;;6243950;23;20234;-84
2023/08/03 20:30:09;;;;;;;3.47;0.70;;;30.40;63.70;;;;;;6242467;23;20228;-83
2023/08/03 20:32:38;;;;;;;1.05;0.65;;;30.40;63.70;;;;;;6244504;23;20273;-86
2023/08/03 20:35:09;;;;;;;1.58;0.82;;;30.30;63.60;;;;;;6242040;23;20155;-82
2023/08/03 20:37:38;;;;;;;0.40;0.40;;;30.30;63.60;;;;;;6243152;23;20170;-85
2023/08/03 20:40:10;;;;;;;0.82;0.70;;;30.20;63.60;;;;;;6241824;23;20166;-84
2023/08/03 20:42:39;;;;;;;1.20;0.75;;;30.20;63.70;;;;;;6241868;23;20178;-83
2023/08/03 20:45:10;;;;;;;0.47;0.40;;;30.20;63.90;;;;;;6242900;23;20161;-85
2023/08/03 20:47:59;;;;;;;0.50;0.50;;;30.20;63.80;;;;;;6241545;22;20170;-83
2023/08/03 20:50:47;;;;;;;0.77;0.70;;;30.10;63.70;;;;;;6240737;22;20193;-83
2023/08/03 20:53:19;;;;;;;0.20;0.20;;;30.10;63.70;;;;;;6242235;23;20205;-85
2023/08/03 20:55:50;;;;;;;0.50;0.43;;;30.10;63.70;;;;;;6242056;23;20170;-84
2023/08/03 20:58:19;;;;;;;2.22;1.42;;;30.10;63.80;;;;;;6241088;23;20600;-85
2023/08/03 21:00:54;;;;;;;1.23;1.08;;;30.00;63.80;;;;;;6243097;23;20159;-84
2023/08/03 21:03:23;;;;;;;1.23;0.47;;;30.00;63.80;;;;;;6243284;23;20237;-84
2023/08/03 21:05:51;;;;;;;0.30;0.30;;;30.00;63.80;;;;;;6242949;23;20163;-85
2023/08/03 21:08:20;;;;;;;2.63;0.60;;;29.90;63.70;;;;;;6239499;23;20185;-84
2023/08/03 21:10:50;;;;;;;0.82;0.60;;;29.90;63.70;;;;;;6244350;23;20213;-86
2023/08/03 21:13:19;;;;;;;2.20;0.88;;;29.90;63.80;;;;;;6242472;23;20158;-84
2023/08/03 21:15:47;;;;;;;0.85;0.55;;;29.90;63.80;;;;;;6242758;23;20252;-85
2023/08/03 21:18:16;;;;;;;0.50;0.50;;;29.80;63.80;;;;;;6240336;23;20730;-83
2023/08/03 21:20:47;;;;;;;1.20;0.75;;;29.80;64.00;;;;;;6253516;23;20163;-83
2023/08/03 21:23:16;;;;;;;0.40;0.40;;;29.80;64.00;;;;;;6243505;23;20730;-84
2023/08/03 21:25:45;;;;;;;0.30;0.30;;;29.80;64.10;;;;;;6243526;23;20249;-84
2023/08/03 21:28:14;;;;;;;0.85;0.60;;;29.80;64.10;;;;;;6243519;23;20170;-84
2023/08/03 21:30:43;;;;;;;1.27;0.50;;;29.70;64.10;;;;;;6242369;23;20248;-83
2023/08/03 21:33:11;;;;;;;0.52;0.38;;;29.70;64.10;;;;;;6241144;23;20194;-84
2023/08/03 21:35:40;;;;;;;0.55;0.40;;;29.70;64.20;;;;;;6240883;23;20166;-82
2023/08/03 21:38:08;;;;;;;1.00;0.65;;;29.60;64.30;;;;;;6240821;23;20167;-83
2023/08/03 21:40:38;;;;;;;1.40;0.95;;;29.60;64.40;;;;;;6243328;23;20686;-84
2023/08/03 21:43:07;;;;;;;2.30;0.35;;;29.60;64.50;;;;;;6240944;23;20182;-85
2023/08/03 21:45:37;;;;;;;0.50;0.40;;;29.50;64.50;;;;;;6241888;23;20185;-84
2023/08/03 21:48:06;;;;;;;0.50;0.40;;;29.50;64.60;;;;;;6240577;23;20612;-85
2023/08/03 21:50:36;;;;;;;0.28;0.28;;;29.50;64.60;;;;;;6242401;23;20533;-85
2023/08/03 21:53:05;;;;;;;1.00;0.52;;;29.50;64.70;;;;;;6237332;23;20198;-82
2023/08/03 21:55:35;;;;;;;0.30;0.30;;;29.50;64.80;;;;;;6241999;23;20171;-83
2023/08/03 21:58:03;;;;;;;0.50;0.50;;;29.40;64.90;;;;;;6238755;23;20169;-83
2023/08/03 22:00:32;;;;;;;0.88;0.77;;;29.40;65.00;;;;;;6238722;23;20172;-84
2023/08/03 22:03:02;;;;;;;5.68;1.77;;;29.30;65.00;;;;;;6238491;23;20182;-83
2023/08/03 22:05:31;;;;;;;0.35;0.35;;;29.30;65.10;;;;;;6242018;23;20177;-84
2023/08/03 22:07:59;;;;;;;0.30;0.30;;;29.30;65.00;;;;;;6242160;23;20167;-82
2023/08/03 22:10:28;;;;;;;1.17;0.75;;;29.20;65.00;;;;;;6242009;23;20253;-81
2023/08/03 22:12:56;;;;;;;0.85;0.57;;;29.20;65.20;;;;;;6239497;23;20297;-84
2023/08/03 22:15:25;;;;;;;0.55;0.50;;;29.20;65.20;;;;;;6242509;23;20201;-82